sensor_id;sensor_type;location;lat;lon;timestamp;pressure;altitude;pressure_sealevel;temperature;humidity
34205;BME280;20471;49.680;20.074;2024-01-11T00:00:27;98359.91;;;-11.11;66.31
34205;BME280;20471;49.680;20.074;2024-01-11T00:03:15;98354.83;;;-11.09;66.35
34205;BME280;20471;49.680;20.074;2024-01-11T00:05:43;98348.38;;;-11.09;66.25
34205;BME280;20471;49.680;20.074;2024-01-11T00:08:11;98351.73;;;-11.06;66.07
34205;BME280;20471;49.680;20.074;2024-01-11T00:10:38;98342.23;;;-11.12;66.07
34205;BME280;20471;49.680;20.074;2024-01-11T00:13:06;98340.00;;;-11.17;66.02
34205;BME280;20471;49.680;20.074;2024-01-11T00:15:34;98339.28;;;-11.22;65.93
34205;BME280;20471;49.680;20.074;2024-01-11T00:18:02;98342.34;;;-11.20;66.07
34205;BME280;20471;49.680;20.074;2024-01-11T00:20:29;98333.15;;;-11.20;66.10
34205;BME280;20471;49.680;20.074;2024-01-11T00:22:57;98332.02;;;-11.18;66.25
34205;BME280;20471;49.680;20.074;2024-01-11T00:25:25;98333.91;;;-11.07;66.26
34205;BME280;20471;49.680;20.074;2024-01-11T00:27:53;98323.95;;;-11.06;66.23
34205;BME280;20471;49.680;20.074;2024-01-11T00:30:20;98319.44;;;-11.07;66.13
34205;BME280;20471;49.680;20.074;2024-01-11T00:32:49;98311.88;;;-11.09;66.04
34205;BME280;20471;49.680;20.074;2024-01-11T00:35:17;98299.27;;;-11.15;65.99
34205;BME280;20471;49.680;20.074;2024-01-11T00:37:45;98292.59;;;-11.13;66.00
34205;BME280;20471;49.680;20.074;2024-01-11T00:40:13;98287.60;;;-11.14;66.12
34205;BME280;20471;49.680;20.074;2024-01-11T00:42:40;98281.21;;;-11.16;66.20
34205;BME280;20471;49.680;20.074;2024-01-11T00:45:08;98274.50;;;-11.17;66.19
34205;BME280;20471;49.680;20.074;2024-01-11T00:47:36;98277.95;;;-11.17;66.29
34205;BME280;20471;49.680;20.074;2024-01-11T00:50:04;98275.16;;;-11.17;66.34
34205;BME280;20471;49.680;20.074;2024-01-11T00:52:33;98272.30;;;-11.19;66.37
34205;BME280;20471;49.680;20.074;2024-01-11T00:55:01;98268.52;;;-11.20;66.47
34205;BME280;20471;49.680;20.074;2024-01-11T00:57:28;98260.74;;;-11.22;66.50
34205;BME280;20471;49.680;20.074;2024-01-11T00:59:56;98263.02;;;-11.22;66.62
34205;BME280;20471;49.680;20.074;2024-01-11T01:02:24;98265.09;;;-11.17;66.72
34205;BME280;20471;49.680;20.074;2024-01-11T01:04:51;98268.27;;;-11.18;66.73
34205;BME280;20471;49.680;20.074;2024-01-11T01:07:19;98261.23;;;-11.21;66.58
34205;BME280;20471;49.680;20.074;2024-01-11T01:09:47;98258.95;;;-11.24;66.39
34205;BME280;20471;49.680;20.074;2024-01-11T01:12:14;98262.59;;;-11.24;66.53
34205;BME280;20471;49.680;20.074;2024-01-11T01:14:42;98263.91;;;-11.22;66.41
34205;BME280;20471;49.680;20.074;2024-01-11T01:17:10;98264.02;;;-11.25;66.54
34205;BME280;20471;49.680;20.074;2024-01-11T01:19:37;98259.73;;;-11.22;66.44
34205;BME280;20471;49.680;20.074;2024-01-11T01:22:05;98253.95;;;-11.21;66.36
34205;BME280;20471;49.680;20.074;2024-01-11T01:24:33;98260.20;;;-11.21;66.46
34205;BME280;20471;49.680;20.074;2024-01-11T01:27:00;98254.77;;;-11.24;66.36
34205;BME280;20471;49.680;20.074;2024-01-11T01:29:28;98249.87;;;-11.28;66.24
34205;BME280;20471;49.680;20.074;2024-01-11T01:31:56;98244.63;;;-11.27;66.27
34205;BME280;20471;49.680;20.074;2024-01-11T01:34:23;98247.92;;;-11.27;66.18
34205;BME280;20471;49.680;20.074;2024-01-11T01:36:51;98251.13;;;-11.34;66.06
34205;BME280;20471;49.680;20.074;2024-01-11T01:39:18;98248.63;;;-11.42;65.98
34205;BME280;20471;49.680;20.074;2024-01-11T01:41:46;98252.08;;;-11.41;66.04
34205;BME280;20471;49.680;20.074;2024-01-11T01:44:14;98249.54;;;-11.47;66.13
34205;BME280;20471;49.680;20.074;2024-01-11T01:46:42;98252.48;;;-11.47;66.18
34205;BME280;20471;49.680;20.074;2024-01-11T01:49:10;98245.17;;;-11.47;66.17
34205;BME280;20471;49.680;20.074;2024-01-11T01:51:38;98247.90;;;-11.45;66.23
34205;BME280;20471;49.680;20.074;2024-01-11T01:54:06;98247.77;;;-11.51;66.11
34205;BME280;20471;49.680;20.074;2024-01-11T01:56:34;98246.20;;;-11.56;66.10
34205;BME280;20471;49.680;20.074;2024-01-11T01:59:03;98242.25;;;-11.58;66.17
34205;BME280;20471;49.680;20.074;2024-01-11T02:01:31;98240.27;;;-11.55;66.38
34205;BME280;20471;49.680;20.074;2024-01-11T02:04:00;98236.36;;;-11.48;66.37
34205;BME280;20471;49.680;20.074;2024-01-11T02:06:28;98230.05;;;-11.47;66.35
34205;BME280;20471;49.680;20.074;2024-01-11T02:08:59;98228.65;;;-11.47;66.31
34205;BME280;20471;49.680;20.074;2024-01-11T02:11:30;98229.27;;;-11.54;66.24
34205;BME280;20471;49.680;20.074;2024-01-11T02:13:58;98237.82;;;-11.59;66.22
34205;BME280;20471;49.680;20.074;2024-01-11T02:16:26;98239.52;;;-11.59;66.29
34205;BME280;20471;49.680;20.074;2024-01-11T02:18:54;98235.71;;;-11.49;66.36
34205;BME280;20471;49.680;20.074;2024-01-11T02:21:23;98234.52;;;-11.46;66.33
34205;BME280;20471;49.680;20.074;2024-01-11T02:24:03;98234.92;;;-11.42;66.27
34205;BME280;20471;49.680;20.074;2024-01-11T02:26:31;98234.00;;;-11.41;66.22
34205;BME280;20471;49.680;20.074;2024-01-11T02:28:59;98231.58;;;-11.46;66.20
34205;BME280;20471;49.680;20.074;2024-01-11T02:31:27;98226.26;;;-11.52;66.13
34205;BME280;20471;49.680;20.074;2024-01-11T02:33:55;98224.80;;;-11.55;66.20
34205;BME280;20471;49.680;20.074;2024-01-11T02:36:25;98221.50;;;-11.55;66.16
34205;BME280;20471;49.680;20.074;2024-01-11T02:38:53;98227.77;;;-11.56;66.20
34205;BME280;20471;49.680;20.074;2024-01-11T02:41:21;98227.14;;;-11.57;66.07
34205;BME280;20471;49.680;20.074;2024-01-11T02:43:49;98222.80;;;-11.57;66.35
34205;BME280;20471;49.680;20.074;2024-01-11T02:46:17;98223.09;;;-11.51;66.44
34205;BME280;20471;49.680;20.074;2024-01-11T02:48:44;98222.14;;;-11.48;66.28
34205;BME280;20471;49.680;20.074;2024-01-11T02:51:12;98223.77;;;-11.50;66.20
34205;BME280;20471;49.680;20.074;2024-01-11T02:53:40;98224.08;;;-11.49;66.34
34205;BME280;20471;49.680;20.074;2024-01-11T02:56:07;98219.67;;;-11.52;66.17
34205;BME280;20471;49.680;20.074;2024-01-11T02:58:35;98211.62;;;-11.56;66.26
34205;BME280;20471;49.680;20.074;2024-01-11T03:01:03;98209.79;;;-11.57;66.28
34205;BME280;20471;49.680;20.074;2024-01-11T03:03:31;98206.02;;;-11.59;66.26
34205;BME280;20471;49.680;20.074;2024-01-11T03:05:58;98212.38;;;-11.57;66.24
34205;BME280;20471;49.680;20.074;2024-01-11T03:08:26;98218.61;;;-11.57;66.22
34205;BME280;20471;49.680;20.074;2024-01-11T03:10:54;98209.55;;;-11.56;66.24
34205;BME280;20471;49.680;20.074;2024-01-11T03:13:23;98200.36;;;-11.56;66.22
34205;BME280;20471;49.680;20.074;2024-01-11T03:15:50;98197.29;;;-11.58;66.19
34205;BME280;20471;49.680;20.074;2024-01-11T03:18:18;98202.91;;;-11.55;66.19
34205;BME280;20471;49.680;20.074;2024-01-11T03:20:46;98205.36;;;-11.51;66.33
34205;BME280;20471;49.680;20.074;2024-01-11T03:23:13;98210.10;;;-11.43;66.35
34205;BME280;20471;49.680;20.074;2024-01-11T03:25:41;98208.13;;;-11.50;66.02
34205;BME280;20471;49.680;20.074;2024-01-11T03:28:09;98208.55;;;-11.52;66.00
34205;BME280;20471;49.680;20.074;2024-01-11T03:30:36;98211.73;;;-11.59;66.01
34205;BME280;20471;49.680;20.074;2024-01-11T03:33:04;98205.73;;;-11.60;66.06
34205;BME280;20471;49.680;20.074;2024-01-11T03:35:32;98208.02;;;-11.61;66.07
34205;BME280;20471;49.680;20.074;2024-01-11T03:37:59;98208.67;;;-11.55;66.19
34205;BME280;20471;49.680;20.074;2024-01-11T03:40:27;98208.10;;;-11.54;66.15
34205;BME280;20471;49.680;20.074;2024-01-11T03:42:55;98209.61;;;-11.57;66.12
34205;BME280;20471;49.680;20.074;2024-01-11T03:45:22;98211.80;;;-11.60;66.11
34205;BME280;20471;49.680;20.074;2024-01-11T03:47:50;98219.08;;;-11.64;65.87
34205;BME280;20471;49.680;20.074;2024-01-11T03:50:17;98215.09;;;-11.70;65.95
34205;BME280;20471;49.680;20.074;2024-01-11T03:52:46;98211.23;;;-11.73;65.88
34205;BME280;20471;49.680;20.074;2024-01-11T03:55:14;98208.61;;;-11.72;66.05
34205;BME280;20471;49.680;20.074;2024-01-11T03:57:41;98208.20;;;-11.66;66.07
34205;BME280;20471;49.680;20.074;2024-01-11T04:00:11;98200.86;;;-11.70;65.95
34205;BME280;20471;49.680;20.074;2024-01-11T04:02:38;98189.64;;;-11.76;66.03
34205;BME280;20471;49.680;20.074;2024-01-11T04:05:06;98192.06;;;-11.80;66.20
34205;BME280;20471;49.680;20.074;2024-01-11T04:07:34;98188.23;;;-11.71;66.25
34205;BME280;20471;49.680;20.074;2024-01-11T04:10:02;98181.39;;;-11.69;66.10
34205;BME280;20471;49.680;20.074;2024-01-11T04:12:30;98176.66;;;-11.72;66.23
34205;BME280;20471;49.680;20.074;2024-01-11T04:14:58;98167.23;;;-11.67;66.49
34205;BME280;20471;49.680;20.074;2024-01-11T04:17:25;98165.27;;;-11.65;66.45
34205;BME280;20471;49.680;20.074;2024-01-11T04:19:53;98162.63;;;-11.69;66.45
34205;BME280;20471;49.680;20.074;2024-01-11T04:22:21;98167.10;;;-11.68;66.48
34205;BME280;20471;49.680;20.074;2024-01-11T04:24:48;98162.23;;;-11.72;66.29
34205;BME280;20471;49.680;20.074;2024-01-11T04:27:16;98160.05;;;-11.83;66.24
34205;BME280;20471;49.680;20.074;2024-01-11T04:29:44;98162.63;;;-11.86;66.38
34205;BME280;20471;49.680;20.074;2024-01-11T04:32:11;98174.14;;;-11.88;66.40
34205;BME280;20471;49.680;20.074;2024-01-11T04:34:39;98168.36;;;-11.87;66.48
34205;BME280;20471;49.680;20.074;2024-01-11T04:37:07;98172.72;;;-11.78;66.61
34205;BME280;20471;49.680;20.074;2024-01-11T04:39:34;98181.47;;;-11.71;66.53
34205;BME280;20471;49.680;20.074;2024-01-11T04:42:02;98177.45;;;-11.66;66.40
34205;BME280;20471;49.680;20.074;2024-01-11T04:44:31;98173.48;;;-11.71;66.40
34205;BME280;20471;49.680;20.074;2024-01-11T04:46:58;98168.67;;;-11.77;66.40
34205;BME280;20471;49.680;20.074;2024-01-11T04:49:26;98169.40;;;-11.73;66.33
34205;BME280;20471;49.680;20.074;2024-01-11T04:51:54;98175.81;;;-11.77;66.29
34205;BME280;20471;49.680;20.074;2024-01-11T04:54:21;98174.33;;;-11.79;66.22
34205;BME280;20471;49.680;20.074;2024-01-11T04:56:49;98172.42;;;-11.79;66.24
34205;BME280;20471;49.680;20.074;2024-01-11T04:59:16;98169.98;;;-11.74;66.35
34205;BME280;20471;49.680;20.074;2024-01-11T05:01:46;98170.66;;;-11.74;66.40
34205;BME280;20471;49.680;20.074;2024-01-11T05:04:13;98167.05;;;-11.79;66.19
34205;BME280;20471;49.680;20.074;2024-01-11T05:06:41;98161.13;;;-11.88;66.34
34205;BME280;20471;49.680;20.074;2024-01-11T05:09:09;98154.86;;;-11.88;66.76
34205;BME280;20471;49.680;20.074;2024-01-11T05:11:36;98146.45;;;-11.86;66.71
34205;BME280;20471;49.680;20.074;2024-01-11T05:14:04;98150.89;;;-11.79;66.85
34205;BME280;20471;49.680;20.074;2024-01-11T05:16:31;98150.06;;;-11.72;66.84
34205;BME280;20471;49.680;20.074;2024-01-11T05:19:01;98147.64;;;-11.72;66.66
34205;BME280;20471;49.680;20.074;2024-01-11T05:21:29;98137.67;;;-11.83;66.72
34205;BME280;20471;49.680;20.074;2024-01-11T05:23:57;98135.67;;;-11.81;66.97
34205;BME280;20471;49.680;20.074;2024-01-11T05:26:25;98138.52;;;-11.73;67.04
34205;BME280;20471;49.680;20.074;2024-01-11T05:28:53;98134.46;;;-11.72;67.02
34205;BME280;20471;49.680;20.074;2024-01-11T05:31:20;98126.77;;;-11.79;66.85
34205;BME280;20471;49.680;20.074;2024-01-11T05:33:48;98119.20;;;-11.86;66.96
34205;BME280;20471;49.680;20.074;2024-01-11T05:36:16;98114.85;;;-11.90;66.86
34205;BME280;20471;49.680;20.074;2024-01-11T05:38:45;98128.77;;;-11.86;66.97
34205;BME280;20471;49.680;20.074;2024-01-11T05:41:13;98129.45;;;-11.85;67.05
34205;BME280;20471;49.680;20.074;2024-01-11T05:43:40;98128.95;;;-11.77;67.23
34205;BME280;20471;49.680;20.074;2024-01-11T05:46:09;98120.44;;;-11.73;67.26
34205;BME280;20471;49.680;20.074;2024-01-11T05:48:36;98106.89;;;-11.73;67.18
34205;BME280;20471;49.680;20.074;2024-01-11T05:51:04;98100.30;;;-11.69;67.07
34205;BME280;20471;49.680;20.074;2024-01-11T05:53:32;98102.88;;;-11.72;67.05
34205;BME280;20471;49.680;20.074;2024-01-11T05:56:02;98101.92;;;-11.75;66.94
34205;BME280;20471;49.680;20.074;2024-01-11T05:58:29;98101.67;;;-11.73;67.06
34205;BME280;20471;49.680;20.074;2024-01-11T06:00:58;98093.71;;;-11.69;67.03
34205;BME280;20471;49.680;20.074;2024-01-11T06:03:25;98082.04;;;-11.72;66.97
34205;BME280;20471;49.680;20.074;2024-01-11T06:05:54;98077.83;;;-11.75;66.99
34205;BME280;20471;49.680;20.074;2024-01-11T06:08:22;98066.55;;;-11.75;67.00
34205;BME280;20471;49.680;20.074;2024-01-11T06:10:50;98064.52;;;-11.73;67.09
34205;BME280;20471;49.680;20.074;2024-01-11T06:13:18;98067.37;;;-11.66;67.17
34205;BME280;20471;49.680;20.074;2024-01-11T06:15:46;98074.02;;;-11.58;67.16
34205;BME280;20471;49.680;20.074;2024-01-11T06:18:13;98069.20;;;-11.51;67.04
34205;BME280;20471;49.680;20.074;2024-01-11T06:20:41;98061.44;;;-11.48;67.21
34205;BME280;20471;49.680;20.074;2024-01-11T06:23:09;98054.23;;;-11.41;67.04
34205;BME280;20471;49.680;20.074;2024-01-11T06:25:36;98053.19;;;-11.50;66.82
34205;BME280;20471;49.680;20.074;2024-01-11T06:28:04;98052.44;;;-11.57;66.77
34205;BME280;20471;49.680;20.074;2024-01-11T06:30:33;98052.25;;;-11.57;67.10
34205;BME280;20471;49.680;20.074;2024-01-11T06:33:01;98048.85;;;-11.50;67.27
34205;BME280;20471;49.680;20.074;2024-01-11T06:35:29;98051.66;;;-11.42;67.29
34205;BME280;20471;49.680;20.074;2024-01-11T06:37:57;98053.05;;;-11.42;67.11
34205;BME280;20471;49.680;20.074;2024-01-11T06:40:25;98049.01;;;-11.32;67.35
34205;BME280;20471;49.680;20.074;2024-01-11T06:42:52;98039.52;;;-11.25;67.22
34205;BME280;20471;49.680;20.074;2024-01-11T06:45:20;98044.95;;;-11.26;67.10
34205;BME280;20471;49.680;20.074;2024-01-11T06:47:48;98045.41;;;-11.34;66.99
34205;BME280;20471;49.680;20.074;2024-01-11T06:50:15;98045.73;;;-11.37;66.94
34205;BME280;20471;49.680;20.074;2024-01-11T06:52:43;98048.73;;;-11.35;67.01
34205;BME280;20471;49.680;20.074;2024-01-11T06:55:11;98044.27;;;-11.40;66.99
34205;BME280;20471;49.680;20.074;2024-01-11T06:57:39;98053.77;;;-11.39;67.33
34205;BME280;20471;49.680;20.074;2024-01-11T07:00:07;98067.25;;;-11.33;67.18
34205;BME280;20471;49.680;20.074;2024-01-11T07:02:35;98067.91;;;-11.32;67.19
34205;BME280;20471;49.680;20.074;2024-01-11T07:05:03;98056.80;;;-11.32;67.06
34205;BME280;20471;49.680;20.074;2024-01-11T07:07:30;98052.17;;;-11.34;67.16
34205;BME280;20471;49.680;20.074;2024-01-11T07:09:59;98034.55;;;-11.19;67.56
34205;BME280;20471;49.680;20.074;2024-01-11T07:12:27;98033.06;;;-11.12;67.18
34205;BME280;20471;49.680;20.074;2024-01-11T07:14:54;98034.94;;;-11.20;67.14
34205;BME280;20471;49.680;20.074;2024-01-11T07:17:22;98037.56;;;-11.20;67.03
34205;BME280;20471;49.680;20.074;2024-01-11T07:19:50;98034.12;;;-11.21;67.04
34205;BME280;20471;49.680;20.074;2024-01-11T07:22:18;98024.83;;;-11.19;67.09
34205;BME280;20471;49.680;20.074;2024-01-11T07:24:45;98019.87;;;-11.16;67.37
34205;BME280;20471;49.680;20.074;2024-01-11T07:27:13;98017.63;;;-11.17;67.24
34205;BME280;20471;49.680;20.074;2024-01-11T07:29:41;98015.73;;;-11.13;67.31
34205;BME280;20471;49.680;20.074;2024-01-11T07:32:08;98001.23;;;-11.08;67.47
34205;BME280;20471;49.680;20.074;2024-01-11T07:34:36;97988.44;;;-10.93;67.73
34205;BME280;20471;49.680;20.074;2024-01-11T07:37:04;97981.14;;;-10.77;67.58
34205;BME280;20471;49.680;20.074;2024-01-11T07:39:31;97991.30;;;-10.78;67.32
34205;BME280;20471;49.680;20.074;2024-01-11T07:41:59;97992.11;;;-10.73;67.44
34205;BME280;20471;49.680;20.074;2024-01-11T07:44:27;97986.70;;;-10.65;67.58
34205;BME280;20471;49.680;20.074;2024-01-11T07:46:54;97976.70;;;-10.63;67.87
34205;BME280;20471;49.680;20.074;2024-01-11T07:49:22;97982.45;;;-10.63;67.88
34205;BME280;20471;49.680;20.074;2024-01-11T07:51:50;97982.00;;;-10.49;68.12
34205;BME280;20471;49.680;20.074;2024-01-11T07:54:17;97974.80;;;-10.36;68.26
34205;BME280;20471;49.680;20.074;2024-01-11T07:56:45;97976.54;;;-10.40;68.15
34205;BME280;20471;49.680;20.074;2024-01-11T07:59:13;97973.56;;;-10.43;68.23
34205;BME280;20471;49.680;20.074;2024-01-11T08:01:41;97959.05;;;-10.41;68.38
34205;BME280;20471;49.680;20.074;2024-01-11T08:04:08;97959.20;;;-10.34;68.58
34205;BME280;20471;49.680;20.074;2024-01-11T08:06:36;97952.91;;;-10.18;68.92
34205;BME280;20471;49.680;20.074;2024-01-11T08:09:04;97948.50;;;-9.99;68.90
34205;BME280;20471;49.680;20.074;2024-01-11T08:11:32;97949.41;;;-9.85;69.06
34205;BME280;20471;49.680;20.074;2024-01-11T08:13:59;97943.98;;;-9.70;69.16
34205;BME280;20471;49.680;20.074;2024-01-11T08:16:27;97946.68;;;-9.58;69.18
34205;BME280;20471;49.680;20.074;2024-01-11T08:18:55;97955.82;;;-9.45;69.46
34205;BME280;20471;49.680;20.074;2024-01-11T08:21:22;97960.92;;;-9.35;69.41
34205;BME280;20471;49.680;20.074;2024-01-11T08:23:51;97969.80;;;-9.25;69.63
34205;BME280;20471;49.680;20.074;2024-01-11T08:26:18;97966.03;;;-9.09;69.77
34205;BME280;20471;49.680;20.074;2024-01-11T08:28:46;97978.40;;;-8.88;70.05
34205;BME280;20471;49.680;20.074;2024-01-11T08:31:13;97963.95;;;-8.71;70.14
34205;BME280;20471;49.680;20.074;2024-01-11T08:33:41;97967.05;;;-8.67;69.92
34205;BME280;20471;49.680;20.074;2024-01-11T08:36:09;97957.25;;;-8.57;70.28
34205;BME280;20471;49.680;20.074;2024-01-11T08:38:38;97961.02;;;-8.46;70.50
34205;BME280;20471;49.680;20.074;2024-01-11T08:41:07;97958.83;;;-8.37;70.56
34205;BME280;20471;49.680;20.074;2024-01-11T08:43:34;97952.79;;;-8.29;70.64
34205;BME280;20471;49.680;20.074;2024-01-11T08:46:02;97961.46;;;-8.22;70.84
34205;BME280;20471;49.680;20.074;2024-01-11T08:48:30;97965.63;;;-8.15;70.79
34205;BME280;20471;49.680;20.074;2024-01-11T08:50:57;97959.69;;;-8.06;70.99
34205;BME280;20471;49.680;20.074;2024-01-11T08:53:25;97959.14;;;-7.96;70.85
34205;BME280;20471;49.680;20.074;2024-01-11T08:55:52;97954.80;;;-7.80;71.08
34205;BME280;20471;49.680;20.074;2024-01-11T08:58:20;97938.52;;;-7.61;71.36
34205;BME280;20471;49.680;20.074;2024-01-11T09:00:48;97934.02;;;-7.40;71.49
34205;BME280;20471;49.680;20.074;2024-01-11T09:03:15;97930.49;;;-7.19;71.57
34205;BME280;20471;49.680;20.074;2024-01-11T09:05:43;97929.15;;;-6.96;71.70
34205;BME280;20471;49.680;20.074;2024-01-11T09:08:11;97923.11;;;-6.74;71.62
34205;BME280;20471;49.680;20.074;2024-01-11T09:10:38;97923.02;;;-6.56;71.55
34205;BME280;20471;49.680;20.074;2024-01-11T09:13:08;97929.33;;;-6.36;71.64
34205;BME280;20471;49.680;20.074;2024-01-11T09:15:35;97928.25;;;-6.24;71.55
34205;BME280;20471;49.680;20.074;2024-01-11T09:18:03;97931.41;;;-6.21;71.41
34205;BME280;20471;49.680;20.074;2024-01-11T09:20:31;97935.27;;;-6.16;71.59
34205;BME280;20471;49.680;20.074;2024-01-11T09:22:59;97932.65;;;-6.02;71.70
34205;BME280;20471;49.680;20.074;2024-01-11T09:25:30;97927.85;;;-5.90;71.62
34205;BME280;20471;49.680;20.074;2024-01-11T09:27:58;97923.41;;;-5.84;71.66
34205;BME280;20471;49.680;20.074;2024-01-11T09:30:26;97920.77;;;-5.79;71.71
34205;BME280;20471;49.680;20.074;2024-01-11T09:32:54;97918.52;;;-5.71;71.81
34205;BME280;20471;49.680;20.074;2024-01-11T09:35:22;97907.54;;;-5.61;71.86
34205;BME280;20471;49.680;20.074;2024-01-11T09:37:51;97893.21;;;-5.54;71.97
34205;BME280;20471;49.680;20.074;2024-01-11T09:40:18;97889.29;;;-5.45;72.16
34205;BME280;20471;49.680;20.074;2024-01-11T09:42:46;97894.09;;;-5.35;72.29
34205;BME280;20471;49.680;20.074;2024-01-11T09:45:16;97893.25;;;-5.25;72.37
34205;BME280;20471;49.680;20.074;2024-01-11T09:47:44;97900.27;;;-5.15;72.18
34205;BME280;20471;49.680;20.074;2024-01-11T09:50:15;97908.43;;;-5.06;72.12
34205;BME280;20471;49.680;20.074;2024-01-11T09:52:48;97904.98;;;-4.96;72.29
34205;BME280;20471;49.680;20.074;2024-01-11T09:55:18;97903.38;;;-4.86;72.31
34205;BME280;20471;49.680;20.074;2024-01-11T09:57:47;97909.01;;;-4.78;72.33
34205;BME280;20471;49.680;20.074;2024-01-11T10:00:22;97914.67;;;-4.71;72.12
34205;BME280;20471;49.680;20.074;2024-01-11T10:02:50;97915.45;;;-4.62;72.16
34205;BME280;20471;49.680;20.074;2024-01-11T10:05:18;97914.48;;;-4.53;72.25
34205;BME280;20471;49.680;20.074;2024-01-11T10:07:46;97904.62;;;-4.48;72.27
34205;BME280;20471;49.680;20.074;2024-01-11T10:10:14;97890.30;;;-4.39;72.37
34205;BME280;20471;49.680;20.074;2024-01-11T10:12:42;97877.13;;;-4.27;72.32
34205;BME280;20471;49.680;20.074;2024-01-11T10:15:10;97877.07;;;-4.11;72.36
34205;BME280;20471;49.680;20.074;2024-01-11T10:17:45;97878.80;;;-3.96;72.17
34205;BME280;20471;49.680;20.074;2024-01-11T10:20:13;97881.32;;;-3.82;71.76
34205;BME280;20471;49.680;20.074;2024-01-11T10:22:41;97878.42;;;-3.69;71.78
34205;BME280;20471;49.680;20.074;2024-01-11T10:27:40;97872.27;;;-3.43;71.40
34205;BME280;20471;49.680;20.074;2024-01-11T10:30:10;97874.66;;;-3.30;71.34
34205;BME280;20471;49.680;20.074;2024-01-11T10:32:39;97867.58;;;-3.18;71.22
34205;BME280;20471;49.680;20.074;2024-01-11T10:35:07;97867.14;;;-3.07;70.97
34205;BME280;20471;49.680;20.074;2024-01-11T10:37:36;97863.16;;;-2.97;71.11
34205;BME280;20471;49.680;20.074;2024-01-11T10:40:06;97852.79;;;-2.85;70.75
34205;BME280;20471;49.680;20.074;2024-01-11T10:42:41;97852.44;;;-2.74;70.43
34205;BME280;20471;49.680;20.074;2024-01-11T10:45:17;97849.18;;;-2.64;70.49
34205;BME280;20471;49.680;20.074;2024-01-11T10:47:55;97838.73;;;-2.55;70.11
34205;BME280;20471;49.680;20.074;2024-01-11T10:50:25;97827.56;;;-2.47;69.52
34205;BME280;20471;49.680;20.074;2024-01-11T10:55:33;97826.64;;;-2.33;68.12
34205;BME280;20471;49.680;20.074;2024-01-11T10:58:02;97823.02;;;-2.27;67.64
34205;BME280;20471;49.680;20.074;2024-01-11T11:00:31;97821.48;;;-2.21;67.51
34205;BME280;20471;49.680;20.074;2024-01-11T11:02:59;97828.25;;;-2.11;68.31
34205;BME280;20471;49.680;20.074;2024-01-11T11:05:28;97823.80;;;-1.98;68.26
34205;BME280;20471;49.680;20.074;2024-01-11T11:07:58;97814.34;;;-1.90;67.84
34205;BME280;20471;49.680;20.074;2024-01-11T11:10:27;97801.56;;;-1.82;67.64
34205;BME280;20471;49.680;20.074;2024-01-11T11:12:56;97795.56;;;-1.76;67.09
34205;BME280;20471;49.680;20.074;2024-01-11T11:15:27;97793.28;;;-1.69;66.40
34205;BME280;20471;49.680;20.074;2024-01-11T11:17:56;97786.52;;;-1.64;65.48
34205;BME280;20471;49.680;20.074;2024-01-11T11:20:24;97780.79;;;-1.59;65.22
34205;BME280;20471;49.680;20.074;2024-01-11T11:23:07;97776.30;;;-1.54;64.39
34205;BME280;20471;49.680;20.074;2024-01-11T11:25:36;97779.44;;;-1.49;63.56
34205;BME280;20471;49.680;20.074;2024-01-11T11:28:05;97774.88;;;-1.43;63.82
34205;BME280;20471;49.680;20.074;2024-01-11T11:30:36;97771.83;;;-1.39;63.38
34205;BME280;20471;49.680;20.074;2024-01-11T11:33:20;97767.77;;;-1.33;63.12
34205;BME280;20471;49.680;20.074;2024-01-11T11:35:52;97760.04;;;-1.26;62.34
34205;BME280;20471;49.680;20.074;2024-01-11T11:38:25;97750.51;;;-1.23;62.52
34205;BME280;20471;49.680;20.074;2024-01-11T11:40:56;97746.37;;;-1.18;62.82
34205;BME280;20471;49.680;20.074;2024-01-11T11:43:26;97741.55;;;-1.15;61.67
34205;BME280;20471;49.680;20.074;2024-01-11T11:45:55;97741.37;;;-1.13;61.23
34205;BME280;20471;49.680;20.074;2024-01-11T11:51:16;97739.45;;;-1.11;61.25
34205;BME280;20471;49.680;20.074;2024-01-11T11:53:46;97731.98;;;-1.09;60.68
34205;BME280;20471;49.680;20.074;2024-01-11T11:56:14;97719.87;;;-1.05;60.36
34205;BME280;20471;49.680;20.074;2024-01-11T11:58:45;97710.20;;;-1.01;60.59
34205;BME280;20471;49.680;20.074;2024-01-11T12:01:14;97699.74;;;-0.99;60.22
34205;BME280;20471;49.680;20.074;2024-01-11T12:03:44;97695.68;;;-0.97;59.62
34205;BME280;20471;49.680;20.074;2024-01-11T12:06:17;97691.44;;;-0.95;59.95
34205;BME280;20471;49.680;20.074;2024-01-11T12:08:48;97682.34;;;-0.96;60.35
34205;BME280;20471;49.680;20.074;2024-01-11T12:11:18;97673.70;;;-0.94;60.85
34205;BME280;20471;49.680;20.074;2024-01-11T12:13:50;97668.23;;;-0.92;60.56
34205;BME280;20471;49.680;20.074;2024-01-11T12:16:19;97674.86;;;-0.91;60.16
34205;BME280;20471;49.680;20.074;2024-01-11T12:18:49;97668.15;;;-0.89;60.42
34205;BME280;20471;49.680;20.074;2024-01-11T12:21:17;97652.02;;;-0.87;60.99
34205;BME280;20471;49.680;20.074;2024-01-11T12:23:44;97654.71;;;-0.85;60.32
34205;BME280;20471;49.680;20.074;2024-01-11T12:26:12;97657.39;;;-0.84;59.97
34205;BME280;20471;49.680;20.074;2024-01-11T12:28:41;97653.80;;;-0.81;58.99
34205;BME280;20471;49.680;20.074;2024-01-11T12:31:10;97648.81;;;-0.75;59.40
34205;BME280;20471;49.680;20.074;2024-01-11T12:33:38;97649.77;;;-0.67;59.67
34205;BME280;20471;49.680;20.074;2024-01-11T12:36:07;97643.45;;;-0.64;59.71
34205;BME280;20471;49.680;20.074;2024-01-11T12:38:35;97639.87;;;-0.61;58.64
34205;BME280;20471;49.680;20.074;2024-01-11T12:41:04;97641.14;;;-0.56;59.23
34205;BME280;20471;49.680;20.074;2024-01-11T12:43:33;97631.34;;;-0.47;60.15
34205;BME280;20471;49.680;20.074;2024-01-11T12:46:01;97629.29;;;-0.42;59.65
34205;BME280;20471;49.680;20.074;2024-01-11T12:48:30;97629.08;;;-0.38;59.08
34205;BME280;20471;49.680;20.074;2024-01-11T12:50:58;97631.14;;;-0.33;59.04
34205;BME280;20471;49.680;20.074;2024-01-11T12:53:25;97624.95;;;-0.29;59.17
34205;BME280;20471;49.680;20.074;2024-01-11T12:56:07;97618.45;;;-0.27;58.68